createdAt,value
2022-12-22T00:00:54.907Z,33.40
2022-12-22T00:06:14.750Z,32.97
2022-12-22T00:11:35.065Z,33.67
2022-12-22T00:16:56.825Z,30.65
2022-12-22T00:22:20.204Z,32.75
2022-12-22T00:27:49.670Z,33.80
2022-12-22T00:33:09.732Z,33.80
2022-12-22T00:38:39.890Z,31.20
2022-12-22T00:43:59.751Z,33.17
2022-12-22T00:49:20.372Z,32.55
2022-12-22T00:54:41.487Z,31.00
2022-12-22T01:00:01.569Z,33.08
2022-12-22T01:05:21.772Z,32.15
2022-12-22T01:10:43.930Z,31.05
2022-12-22T01:16:04.378Z,31.05
2022-12-22T01:21:24.883Z,31.95
2022-12-22T01:26:45.216Z,33.65
2022-12-22T01:32:05.306Z,34.72
2022-12-22T01:37:25.505Z,32.90
2022-12-22T01:42:46.757Z,33.28
2022-12-22T01:48:06.882Z,34.97
2022-12-22T01:53:30.983Z,33.92
2022-12-22T01:58:57.359Z,34.65
2022-12-22T02:04:18.237Z,34.53
2022-12-22T02:10:02.727Z,35.47
2022-12-22T02:15:51.354Z,35.95
2022-12-22T02:21:13.903Z,36.72
2022-12-22T02:26:45.073Z,39.47
2022-12-22T02:32:04.927Z,39.85
2022-12-22T02:37:49.468Z,38.65
2022-12-22T02:43:43.702Z,41.63
2022-12-22T02:49:23.095Z,39.97
2022-12-22T02:54:43.461Z,42.17
2022-12-22T03:00:03.345Z,42.05
2022-12-22T03:05:23.773Z,43.25
2022-12-22T03:10:43.974Z,41.90
2022-12-22T03:16:04.048Z,43.55
2022-12-22T03:21:23.987Z,41.67
2022-12-22T03:26:25.722Z,43.15
2022-12-22T03:31:27.697Z,40.55
2022-12-22T03:36:29.233Z,41.42
2022-12-22T03:41:49.372Z,40.00
2022-12-22T03:46:50.877Z,39.13
2022-12-22T03:51:53.603Z,35.13
2022-12-22T03:56:55.132Z,35.70
2022-12-22T04:01:56.800Z,35.58
2022-12-22T04:06:58.632Z,36.53
2022-12-22T04:12:18.432Z,36.10
2022-12-22T04:17:19.938Z,34.85
2022-12-22T04:22:21.483Z,35.92
2022-12-22T04:27:23.009Z,35.53
2022-12-22T04:32:24.523Z,36.33
2022-12-22T04:37:26.036Z,35.33
2022-12-22T04:42:27.520Z,35.88
2022-12-22T04:47:29.024Z,33.75
2022-12-22T04:52:30.539Z,34.85
2022-12-22T04:57:35.556Z,34.38
2022-12-22T05:02:41.711Z,32.42
2022-12-22T05:07:44.007Z,32.22
2022-12-22T05:12:54.466Z,32.63
2022-12-22T05:17:57.310Z,31.63
2022-12-22T05:22:59.272Z,32.97
2022-12-22T05:28:00.736Z,32.35
2022-12-22T05:33:02.161Z,30.58
2022-12-22T05:38:03.659Z,31.35
2022-12-22T05:43:05.693Z,28.00
2022-12-22T05:48:07.189Z,27.50
2022-12-22T05:53:08.702Z,26.30
2022-12-22T05:58:10.174Z,25.48
2022-12-22T06:03:11.698Z,23.98
2022-12-22T06:08:13.235Z,26.27
2022-12-22T06:13:15.046Z,26.55
2022-12-22T06:18:17.294Z,26.83
2022-12-22T06:23:19.066Z,29.42
2022-12-22T06:28:20.587Z,30.05
2022-12-22T06:33:22.220Z,30.50
2022-12-22T06:38:23.722Z,31.13
2022-12-22T06:43:26.008Z,30.63
2022-12-22T06:48:27.665Z,30.88
2022-12-22T06:53:29.138Z,30.00
2022-12-22T06:58:30.609Z,32.15
2022-12-22T07:03:32.209Z,30.65
2022-12-22T07:08:33.741Z,32.53
2022-12-22T07:13:35.810Z,30.50
2022-12-22T07:18:39.942Z,30.13
2022-12-22T07:23:41.853Z,32.72
2022-12-22T07:28:43.437Z,33.28
2022-12-22T07:33:44.962Z,32.05
2022-12-22T07:38:50.346Z,31.85
2022-12-22T07:43:56.916Z,33.88
2022-12-22T07:49:17.077Z,32.25
2022-12-22T07:54:18.825Z,33.60
2022-12-22T07:59:21.157Z,33.10
2022-12-22T08:04:22.805Z,35.28
2022-12-22T08:09:24.505Z,32.10
2022-12-22T08:14:25.949Z,31.02
2022-12-22T08:19:27.538Z,33.65
2022-12-22T08:24:29.402Z,32.25
2022-12-22T08:29:37.340Z,31.80
2022-12-22T08:34:39.649Z,34.15
2022-12-22T08:39:43.079Z,34.13
2022-12-22T08:44:46.074Z,32.92
2022-12-22T08:49:48.853Z,33.25
2022-12-22T08:54:50.333Z,34.60
2022-12-22T08:59:51.793Z,33.22
2022-12-22T09:04:53.253Z,33.28
2022-12-22T09:09:54.764Z,33.15
2022-12-22T09:14:56.244Z,31.30
2022-12-22T09:19:57.707Z,32.60
2022-12-22T09:24:59.242Z,33.33
2022-12-22T09:30:00.753Z,29.13
2022-12-22T09:35:02.173Z,30.25
2022-12-22T09:40:04.018Z,26.40
2022-12-22T09:45:16.824Z,26.48
2022-12-22T09:50:23.534Z,23.00
2022-12-22T09:55:24.935Z,23.70
2022-12-22T10:00:27.526Z,21.90
2022-12-22T10:05:46.994Z,20.65
2022-12-22T10:10:53.923Z,18.50
2022-12-22T10:15:56.001Z,18.02
2022-12-22T10:21:14.668Z,16.73
2022-12-22T10:26:29.651Z,17.75
2022-12-22T10:31:39.514Z,18.92
2022-12-22T10:36:46.782Z,16.38
2022-12-22T10:41:51.565Z,15.10
2022-12-22T10:46:59.637Z,17.10
2022-12-22T10:52:12.502Z,15.02
2022-12-22T10:57:14.003Z,16.40
2022-12-22T11:02:22.639Z,14.73
2022-12-22T11:07:24.509Z,14.43
2022-12-22T11:12:43.871Z,13.15
2022-12-22T11:17:55.314Z,12.77
2022-12-22T11:23:01.562Z,13.23
2022-12-22T11:28:22.005Z,12.77
2022-12-22T11:33:37.609Z,10.65
2022-12-22T11:38:57.029Z,10.05
2022-12-22T11:44:26.230Z,9.45
2022-12-22T11:49:46.461Z,10.60
2022-12-22T11:55:04.227Z,10.30
2022-12-22T12:00:11.877Z,9.82
2022-12-22T12:05:44.703Z,10.65
2022-12-22T12:10:54.053Z,9.15
2022-12-22T12:16:14.731Z,9.30
2022-12-22T12:21:25.782Z,8.27
2022-12-22T12:26:40.264Z,8.63
2022-12-22T12:36:58.437Z,8.73
2022-12-22T12:42:21.364Z,9.10
2022-12-22T12:47:33.918Z,9.20
2022-12-22T12:52:38.484Z,10.82
2022-12-22T12:57:48.260Z,13.45
2022-12-22T13:02:57.761Z,11.07
2022-12-22T13:08:32.692Z,11.20
2022-12-22T13:13:39.674Z,11.93
2022-12-22T13:18:49.563Z,11.05
2022-12-22T13:24:29.551Z,12.50
2022-12-22T13:29:43.643Z,11.10
2022-12-22T13:40:28.225Z,13.18
2022-12-22T13:45:41.198Z,10.45
2022-12-22T13:50:47.254Z,10.05
2022-12-22T13:55:49.214Z,10.02
2022-12-22T14:01:10.254Z,10.02
2022-12-22T14:06:35.997Z,11.68
2022-12-22T14:11:38.012Z,11.65
2022-12-22T14:16:45.539Z,12.88
2022-12-22T14:21:58.848Z,14.70
2022-12-22T14:27:00.598Z,10.93
2022-12-22T14:32:03.003Z,12.57
2022-12-22T14:37:04.582Z,10.77
2022-12-22T14:42:13.045Z,12.20
2022-12-22T14:47:23.221Z,10.70
2022-12-22T14:52:45.037Z,11.02
2022-12-22T14:57:51.231Z,11.75
2022-12-22T15:03:03.562Z,9.20
2022-12-22T15:08:08.923Z,9.77
2022-12-22T15:13:18.314Z,8.90
2022-12-22T15:18:27.841Z,7.90
2022-12-22T15:23:29.332Z,7.03
2022-12-22T15:28:31.520Z,7.35
2022-12-22T15:33:33.115Z,8.80
2022-12-22T15:38:38.664Z,8.60
2022-12-22T15:43:58.408Z,7.28
2022-12-22T15:49:00.751Z,7.40
2022-12-22T15:54:03.524Z,7.35
2022-12-22T15:59:05.282Z,7.88
2022-12-22T16:04:06.974Z,6.85
2022-12-22T16:09:16.994Z,7.35
2022-12-22T16:14:20.438Z,7.03
2022-12-22T16:19:22.010Z,6.88
2022-12-22T16:24:26.408Z,6.22
2022-12-22T16:29:28.090Z,6.90
2022-12-22T16:34:29.677Z,5.25
2022-12-22T16:39:31.127Z,5.60
2022-12-22T16:49:52.249Z,5.35
2022-12-22T16:54:53.783Z,4.63
2022-12-22T16:59:55.294Z,6.05
2022-12-22T17:05:01.176Z,6.45
2022-12-22T17:10:02.816Z,6.43
2022-12-22T17:15:04.542Z,6.70
2022-12-22T17:20:06.633Z,6.70
2022-12-22T17:25:17.544Z,8.25
2022-12-22T17:30:24.215Z,12.85
2022-12-22T17:35:28.638Z,6.35
2022-12-22T17:40:34.261Z,7.55
2022-12-22T17:45:35.885Z,7.07
2022-12-22T17:50:38.302Z,7.40
2022-12-22T17:56:06.992Z,6.15
2022-12-22T18:01:01.456Z,7.32
2022-12-22T18:06:03.095Z,6.60
2022-12-22T18:11:04.685Z,6.68
2022-12-22T18:16:07.348Z,6.85
2022-12-22T18:21:20.905Z,6.85
2022-12-22T18:26:24.571Z,6.10
2022-12-22T18:31:26.340Z,7.57
2022-12-22T18:36:31.469Z,5.40
2022-12-22T18:41:37.006Z,5.45
2022-12-22T18:46:38.476Z,4.85
2022-12-22T18:51:40.455Z,3.67
2022-12-22T18:56:41.893Z,4.47
2022-12-22T19:01:43.538Z,3.22
2022-12-22T19:06:45.132Z,2.83
2022-12-22T19:11:46.803Z,4.03
2022-12-22T19:16:48.849Z,3.20
2022-12-22T19:21:50.640Z,3.63
2022-12-22T19:26:52.185Z,3.30
2022-12-22T19:31:53.856Z,5.90
2022-12-22T19:36:55.355Z,2.80
2022-12-22T19:41:57.181Z,2.42
2022-12-22T19:47:02.053Z,1.73
2022-12-22T19:52:03.775Z,2.88
2022-12-22T19:57:08.820Z,2.92
2022-12-22T20:02:30.798Z,2.58
2022-12-22T20:07:36.825Z,2.97
2022-12-22T20:12:42.267Z,2.47
2022-12-22T20:17:44.757Z,2.35
2022-12-22T20:22:51.271Z,3.03
2022-12-22T20:27:54.276Z,3.58
2022-12-22T20:32:56.443Z,3.80
2022-12-22T20:37:59.051Z,3.45
2022-12-22T20:43:00.570Z,4.18
2022-12-22T20:48:02.272Z,3.30
2022-12-22T20:53:05.320Z,3.90
2022-12-22T20:58:23.658Z,4.38
2022-12-22T21:03:25.583Z,18.10
2022-12-22T21:08:27.170Z,5.18
2022-12-22T21:13:28.605Z,4.97
2022-12-22T21:18:30.014Z,5.53
2022-12-22T21:23:31.477Z,6.10
2022-12-22T21:28:36.035Z,7.25
2022-12-22T21:33:37.575Z,7.82
2022-12-22T21:38:39.122Z,7.88
2022-12-22T21:43:40.686Z,10.18
2022-12-22T21:48:42.149Z,9.70
2022-12-22T21:53:43.561Z,8.85
2022-12-22T21:58:45.162Z,10.63
2022-12-22T22:03:46.631Z,11.55
2022-12-22T22:08:48.053Z,11.48
2022-12-22T22:13:50.619Z,12.80
2022-12-22T22:18:52.124Z,16.60
2022-12-22T22:23:53.567Z,16.30
2022-12-22T22:28:54.969Z,18.23
2022-12-22T22:33:56.748Z,18.10
2022-12-22T22:38:58.268Z,20.52
2022-12-22T22:43:59.747Z,27.25
2022-12-22T22:49:01.570Z,21.20
2022-12-22T22:54:03.082Z,22.75
2022-12-22T22:59:04.949Z,22.95
2022-12-22T23:04:07.433Z,22.98
2022-12-22T23:09:09.561Z,21.13
2022-12-22T23:14:10.973Z,21.55
2022-12-22T23:19:12.483Z,24.00
2022-12-22T23:24:14.006Z,27.38
2022-12-22T23:29:15.422Z,24.70
2022-12-22T23:34:16.971Z,26.48
2022-12-22T23:39:18.480Z,27.92
2022-12-22T23:44:19.969Z,27.40
2022-12-22T23:49:21.535Z,31.13
2022-12-22T23:54:23.222Z,29.55
2022-12-22T23:59:24.717Z,31.63
